createdAt,value
2017-09-04T00:00:32.685Z,13.5
2017-09-04T00:01:32.671Z,13.51
2017-09-04T00:02:32.647Z,13.51
2017-09-04T00:03:32.619Z,13.43
2017-09-04T00:04:32.600Z,13.51
2017-09-04T00:05:32.579Z,13.48
2017-09-04T00:06:32.563Z,13.43
2017-09-04T00:07:32.533Z,13.44
2017-09-04T00:08:32.514Z,13.43
2017-09-04T00:09:32.183Z,13.48
2017-09-04T00:10:32.472Z,13.39
2017-09-04T00:11:32.448Z,13.44
2017-09-04T00:12:32.422Z,13.39
2017-09-04T00:13:32.416Z,13.39
2017-09-04T00:14:32.385Z,13.38
2017-09-04T00:15:32.373Z,13.31
2017-09-04T00:16:32.030Z,13.24
2017-09-04T00:17:32.320Z,13.27
2017-09-04T00:18:32.293Z,13.24
2017-09-04T00:19:32.274Z,13.24
2017-09-04T00:20:32.303Z,13.24
2017-09-04T00:21:31.974Z,13.22
2017-09-04T00:22:32.211Z,13.21
2017-09-04T00:23:32.189Z,13.13
2017-09-04T00:24:31.860Z,13.19
2017-09-04T00:25:32.148Z,13.14
2017-09-04T00:26:32.126Z,13.14
2017-09-04T00:27:32.103Z,13.19
2017-09-04T00:28:32.085Z,13.22
2017-09-04T00:29:32.058Z,13.13
2017-09-04T00:30:32.040Z,13.06
2017-09-04T00:31:32.030Z,13.12
2017-09-04T00:32:31.995Z,13.14
2017-09-04T00:33:32.000Z,13.12
2017-09-04T00:34:31.643Z,13.14
2017-09-04T00:35:32.188Z,13.13
2017-09-04T00:36:31.910Z,13.19
2017-09-04T00:37:32.181Z,13.09
2017-09-04T00:38:31.858Z,13.09
2017-09-04T00:39:31.845Z,13.06
2017-09-04T00:40:31.828Z,13.01
2017-09-04T00:41:31.817Z,13.12
2017-09-04T00:42:31.769Z,13.01
2017-09-04T00:43:31.767Z,13.17
2017-09-04T00:44:31.726Z,13.12
2017-09-04T00:45:31.704Z,13.06
2017-09-04T00:46:31.377Z,13.06
2017-09-04T00:47:31.715Z,13.06
2017-09-04T00:48:31.695Z,13.07
2017-09-04T00:49:31.313Z,13.07
2017-09-04T00:50:31.598Z,13.01
2017-09-04T00:51:31.575Z,12.99
2017-09-04T00:52:31.553Z,13.06
2017-09-04T00:53:31.533Z,13.03
2017-09-04T00:54:46.121Z,13.07
2017-09-04T00:55:31.502Z,13.01
2017-09-04T00:56:31.167Z,13.01
2017-09-04T00:57:31.444Z,12.91
2017-09-04T00:58:31.428Z,12.94
2017-09-04T00:59:31.399Z,13.01
2017-09-04T01:00:31.378Z,12.87
2017-09-04T01:01:31.355Z,12.87
2017-09-04T01:02:31.338Z,12.92
2017-09-04T01:03:31.000Z,12.88
2017-09-04T01:04:31.291Z,12.88
2017-09-04T01:05:31.272Z,12.85
2017-09-04T01:06:31.250Z,12.92
2017-09-04T01:07:31.223Z,12.73
2017-09-04T01:08:30.898Z,12.87
2017-09-04T01:09:31.182Z,12.76
2017-09-04T01:10:31.205Z,12.84
2017-09-04T01:11:31.147Z,12.77
2017-09-04T01:12:31.113Z,12.7
2017-09-04T01:13:31.096Z,12.74
2017-09-04T01:14:30.769Z,12.63
2017-09-04T01:15:31.043Z,12.63
2017-09-04T01:16:31.027Z,12.73
2017-09-04T01:17:31.007Z,12.69
2017-09-04T01:18:30.986Z,12.69
2017-09-04T01:19:30.662Z,12.69
2017-09-04T01:20:30.947Z,12.66
2017-09-04T01:21:30.916Z,12.66
2017-09-04T01:22:30.891Z,12.63
2017-09-04T01:23:30.870Z,12.7
2017-09-04T01:24:30.855Z,12.62
2017-09-04T01:25:30.832Z,12.61
2017-09-04T01:26:30.813Z,12.59
2017-09-04T01:27:30.841Z,12.63
2017-09-04T01:28:30.768Z,12.56
2017-09-04T01:29:30.737Z,12.61
2017-09-04T01:30:30.413Z,12.54
2017-09-04T01:31:30.752Z,12.61
2017-09-04T01:32:30.677Z,12.54
2017-09-04T01:33:30.656Z,12.51
2017-09-04T01:34:30.632Z,12.54
2017-09-04T01:35:30.617Z,12.52
2017-09-04T01:36:30.591Z,12.51
2017-09-04T01:37:30.612Z,12.49
2017-09-04T01:38:30.544Z,12.51
2017-09-04T01:39:30.532Z,12.52
2017-09-04T01:40:30.499Z,12.55
2017-09-04T01:41:30.482Z,12.52
2017-09-04T01:42:30.457Z,12.48
2017-09-04T01:43:30.437Z,12.49
2017-09-04T01:44:30.414Z,12.46
2017-09-04T01:45:30.392Z,12.46
2017-09-04T01:46:30.365Z,12.52
2017-09-04T01:47:30.349Z,12.41
2017-09-04T01:48:30.324Z,12.41
2017-09-04T01:49:30.308Z,12.38
2017-09-04T01:50:30.325Z,12.4
2017-09-04T01:51:30.257Z,12.36
2017-09-04T01:52:29.929Z,12.43
2017-09-04T01:53:29.905Z,12.41
2017-09-04T01:54:30.232Z,12.41
2017-09-04T01:55:30.167Z,12.38
2017-09-04T01:56:30.154Z,12.41
2017-09-04T01:57:30.125Z,12.34
2017-09-04T01:58:29.801Z,12.31
2017-09-04T01:59:30.081Z,12.31
2017-09-04T02:00:30.062Z,12.36
2017-09-04T02:01:30.050Z,12.3
2017-09-04T02:02:30.022Z,12.29
2017-09-04T02:03:29.996Z,12.31
2017-09-04T02:04:29.670Z,12.36
2017-09-04T02:05:29.963Z,12.43
2017-09-04T02:06:29.933Z,12.33
2017-09-04T02:07:29.910Z,12.36
2017-09-04T02:08:29.883Z,12.33
2017-09-04T02:09:29.944Z,12.46
2017-09-04T02:10:29.840Z,12.33
2017-09-04T02:11:29.814Z,12.4
2017-09-04T02:12:29.846Z,12.38
2017-09-04T02:13:29.773Z,12.34
2017-09-04T02:14:29.501Z,12.34
2017-09-04T02:15:29.729Z,12.36
2017-09-04T02:16:29.737Z,12.41
2017-09-04T02:17:29.686Z,12.43
2017-09-04T02:18:29.664Z,12.34
2017-09-04T02:19:29.704Z,12.34
2017-09-04T02:20:29.619Z,12.41
2017-09-04T02:21:29.599Z,12.4
2017-09-04T02:22:29.570Z,12.37
2017-09-04T02:23:29.557Z,12.37
2017-09-04T02:24:29.569Z,12.43
2017-09-04T02:25:29.506Z,12.36
2017-09-04T02:26:29.493Z,12.33
2017-09-04T02:27:29.467Z,12.33
2017-09-04T02:28:29.464Z,12.3
2017-09-04T02:29:29.424Z,12.29
2017-09-04T02:30:29.409Z,12.29
2017-09-04T02:31:29.427Z,12.29
2017-09-04T02:32:29.366Z,12.38
2017-09-04T02:33:29.331Z,12.34
2017-09-04T02:34:29.316Z,12.3
2017-09-04T02:35:29.286Z,12.43
2017-09-04T02:36:29.321Z,12.33
2017-09-04T02:37:29.247Z,12.38
2017-09-04T02:38:28.918Z,12.34
2017-09-04T02:39:29.201Z,12.37
2017-09-04T02:40:29.180Z,12.43
2017-09-04T02:41:28.849Z,12.43
2017-09-04T02:42:29.140Z,12.33
2017-09-04T02:43:29.114Z,12.41
2017-09-04T02:44:29.092Z,12.37
2017-09-04T02:45:28.763Z,12.37
2017-09-04T02:46:29.047Z,12.33
2017-09-04T02:47:29.027Z,12.38
2017-09-04T02:48:29.002Z,12.36
2017-09-04T02:49:28.981Z,12.34
2017-09-04T02:50:28.962Z,12.26
2017-09-04T02:52:28.928Z,12.34
2017-09-04T02:53:28.946Z,12.31
2017-09-04T02:54:28.869Z,12.3
2017-09-04T02:55:28.856Z,12.25
2017-09-04T02:56:28.518Z,12.21
2017-09-04T02:57:28.807Z,12.26
2017-09-04T02:58:28.793Z,12.33
2017-09-04T02:59:28.763Z,12.15
2017-09-04T03:00:28.736Z,12.13
2017-09-04T03:01:28.717Z,12.18
2017-09-04T03:02:28.746Z,12.19
2017-09-04T03:03:28.673Z,12.18
2017-09-04T03:04:28.647Z,12.12
2017-09-04T03:05:28.626Z,12.12
2017-09-04T03:06:28.658Z,12.12
2017-09-04T03:07:28.582Z,12.12
2017-09-04T03:08:28.558Z,12.08
2017-09-04T03:09:28.233Z,12.12
2017-09-04T03:10:28.518Z,12.11
2017-09-04T03:11:28.184Z,12.04
2017-09-04T03:12:28.169Z,12.08
2017-09-04T03:13:28.458Z,12.16
2017-09-04T03:14:28.423Z,12.04
2017-09-04T03:15:28.404Z,12.08
2017-09-04T03:16:28.382Z,12.08
2017-09-04T03:17:28.359Z,12.12
2017-09-04T03:18:28.344Z,12.03
2017-09-04T03:19:28.377Z,12.05
2017-09-04T03:20:28.311Z,12.12
2017-09-04T03:21:28.282Z,12.01
2017-09-04T03:22:28.253Z,11.96
2017-09-04T03:23:28.240Z,12
2017-09-04T03:24:28.211Z,11.98
2017-09-04T03:25:28.181Z,11.96
2017-09-04T03:26:28.162Z,11.96
2017-09-04T03:27:28.159Z,11.87
2017-09-04T03:28:28.151Z,11.87
2017-09-04T03:29:28.095Z,11.88
2017-09-04T03:30:28.075Z,11.87
2017-09-04T03:31:28.057Z,11.88
2017-09-04T03:32:28.023Z,11.93
2017-09-04T03:33:28.020Z,11.81
2017-09-04T03:34:27.980Z,11.98
2017-09-04T03:35:28.264Z,11.9
2017-09-04T03:36:27.940Z,11.9
2017-09-04T03:37:27.915Z,11.88
2017-09-04T03:38:27.898Z,11.84
2017-09-04T03:39:27.566Z,11.84
2017-09-04T03:40:27.849Z,11.84
2017-09-04T03:41:27.830Z,11.87
2017-09-04T03:42:27.497Z,11.88
2017-09-04T03:43:27.791Z,11.82
2017-09-04T03:44:27.770Z,11.81
2017-09-04T03:45:27.745Z,11.82
2017-09-04T03:46:27.716Z,11.74
2017-09-04T03:47:27.693Z,11.84
2017-09-04T03:48:27.724Z,11.84
2017-09-04T03:49:27.654Z,11.7
2017-09-04T03:50:27.632Z,11.77
2017-09-04T03:51:27.614Z,11.82
2017-09-04T03:52:27.582Z,11.82
2017-09-04T03:53:27.565Z,11.82
2017-09-04T03:54:27.252Z,11.75
2017-09-04T03:55:27.520Z,11.74
2017-09-04T03:56:27.190Z,11.77
2017-09-04T03:57:27.470Z,11.72
2017-09-04T03:58:27.453Z,11.67
2017-09-04T03:59:27.430Z,11.7
2017-09-04T04:00:27.407Z,11.7
2017-09-04T04:01:27.386Z,11.72
2017-09-04T04:02:27.059Z,11.75
2017-09-04T04:03:27.381Z,11.63
2017-09-04T04:04:27.316Z,11.69
2017-09-04T04:05:27.295Z,11.63
2017-09-04T04:06:27.276Z,11.69
2017-09-04T04:07:27.257Z,11.51
2017-09-04T04:08:27.237Z,11.59
2017-09-04T04:09:27.208Z,11.56
2017-09-04T04:10:27.185Z,11.57
2017-09-04T04:11:27.162Z,11.56
2017-09-04T04:12:27.140Z,11.56
2017-09-04T04:13:26.807Z,11.59
2017-09-04T04:14:27.096Z,11.62
2017-09-04T04:15:27.071Z,11.59
2017-09-04T04:16:27.062Z,11.53
2017-09-04T04:17:27.077Z,11.6
2017-09-04T04:18:26.999Z,11.54
2017-09-04T04:19:26.982Z,11.48
2017-09-04T04:20:27.014Z,11.53
2017-09-04T04:21:26.938Z,11.53
2017-09-04T04:22:26.610Z,11.48
2017-09-04T04:23:27.193Z,11.53
2017-09-04T04:24:26.878Z,11.48
2017-09-04T04:25:26.850Z,11.46
2017-09-04T04:26:26.826Z,11.46
2017-09-04T04:27:26.803Z,11.38
2017-09-04T04:28:26.785Z,11.48
2017-09-04T04:29:26.816Z,11.54
2017-09-04T04:30:26.736Z,11.48
2017-09-04T04:31:26.714Z,11.53
2017-09-04T04:32:26.692Z,11.49
2017-09-04T04:33:26.673Z,11.44
2017-09-04T04:34:26.646Z,11.45
2017-09-04T04:35:26.319Z,11.42
2017-09-04T04:36:26.607Z,11.56
2017-09-04T04:37:26.582Z,11.49
2017-09-04T04:38:26.559Z,11.41
2017-09-04T04:39:26.536Z,11.42
2017-09-04T04:40:26.518Z,11.45
2017-09-04T04:41:26.489Z,11.41
2017-09-04T04:42:26.474Z,11.38
2017-09-04T04:43:26.453Z,11.46
2017-09-04T04:44:26.430Z,11.46
2017-09-04T04:45:26.404Z,11.49
2017-09-04T04:46:26.077Z,11.44
2017-09-04T04:47:26.414Z,11.42
2017-09-04T04:48:26.341Z,11.44
2017-09-04T04:49:26.007Z,11.41
2017-09-04T04:50:26.295Z,11.46
2017-09-04T04:51:26.274Z,11.53
2017-09-04T04:52:25.950Z,11.41
2017-09-04T04:53:26.234Z,11.46
2017-09-04T04:54:26.200Z,11.42
2017-09-04T04:55:26.172Z,11.48
2017-09-04T04:56:25.849Z,11.42
2017-09-04T04:57:26.140Z,11.45
2017-09-04T04:58:26.108Z,11.46
2017-09-04T04:59:26.088Z,11.48
2017-09-04T05:00:26.069Z,11.46
2017-09-04T05:01:25.741Z,11.56
2017-09-04T05:02:26.026Z,11.51
2017-09-04T05:03:26.014Z,11.53
2017-09-04T05:04:25.980Z,11.54
2017-09-04T05:05:25.954Z,11.56
2017-09-04T05:06:25.933Z,11.59
2017-09-04T05:07:25.910Z,11.66
2017-09-04T05:08:25.892Z,11.63
2017-09-04T05:09:25.869Z,11.69
2017-09-04T05:10:25.891Z,11.74
2017-09-04T05:11:25.820Z,11.69
2017-09-04T05:12:25.803Z,11.82
2017-09-04T05:13:25.830Z,11.72
2017-09-04T05:14:25.765Z,11.84
2017-09-04T05:15:25.436Z,11.82
2017-09-04T05:16:25.709Z,11.88
2017-09-04T05:17:25.680Z,11.85
2017-09-04T05:18:25.666Z,11.82
2017-09-04T05:19:25.642Z,11.87
2017-09-04T05:20:25.624Z,11.96
2017-09-04T05:21:25.600Z,11.93
2017-09-04T05:22:25.629Z,11.98
2017-09-04T05:23:25.558Z,12.04
2017-09-04T05:24:25.226Z,12.04
2017-09-04T05:25:25.204Z,12.04
2017-09-04T05:26:25.492Z,12.05
2017-09-04T05:27:25.513Z,12.05
2017-09-04T05:28:25.490Z,12.15
2017-09-04T05:29:25.429Z,12.23
2017-09-04T05:30:25.399Z,12.21
2017-09-04T05:31:25.382Z,12.21
2017-09-04T05:32:25.355Z,12.21
2017-09-04T05:33:25.335Z,12.21
2017-09-04T05:34:25.310Z,12.16
2017-09-04T05:35:25.292Z,12.22
2017-09-04T05:36:25.276Z,12.26
2017-09-04T05:37:25.240Z,12.29
2017-09-04T05:38:25.222Z,12.33
2017-09-04T05:39:25.205Z,12.41
2017-09-04T05:40:25.180Z,12.33
2017-09-04T05:41:24.850Z,12.41
2017-09-04T05:42:25.136Z,12.54
2017-09-04T05:43:25.116Z,12.56
2017-09-04T05:44:25.147Z,12.54
2017-09-04T05:45:25.069Z,12.59
2017-09-04T05:46:25.048Z,12.67
2017-09-04T05:47:25.019Z,12.69
2017-09-04T05:48:25.053Z,12.66
2017-09-04T05:49:24.982Z,12.79
2017-09-04T05:50:24.973Z,12.74
2017-09-04T05:51:24.938Z,12.92
2017-09-04T05:52:24.926Z,12.94
2017-09-04T05:53:24.896Z,12.96
2017-09-04T05:54:24.870Z,13.07
2017-09-04T05:55:24.855Z,13.07
2017-09-04T05:56:24.836Z,13.04
2017-09-04T05:57:24.813Z,13.03
2017-09-04T05:58:24.792Z,13.09
2017-09-04T05:59:24.767Z,13.19
2017-09-04T06:00:24.739Z,13.21
2017-09-04T06:01:24.726Z,13.39
2017-09-04T06:02:24.696Z,13.75
2017-09-04T06:03:24.685Z,14.06
2017-09-04T06:04:24.667Z,14.31
2017-09-04T06:05:24.633Z,14.78
2017-09-04T06:06:24.614Z,15.07
2017-09-04T06:07:24.591Z,15.35
2017-09-04T06:08:24.571Z,15.67
2017-09-04T06:09:24.548Z,15.92
2017-09-04T06:10:24.533Z,16.22
2017-09-04T06:11:24.556Z,16.41
2017-09-04T06:12:24.485Z,16.66
2017-09-04T06:13:24.153Z,16.81
2017-09-04T06:14:24.448Z,16.9
2017-09-04T06:15:24.462Z,16.87
2017-09-04T06:16:24.400Z,16.85
2017-09-04T06:17:24.391Z,16.8
2017-09-04T06:18:24.363Z,16.66
2017-09-04T06:19:24.343Z,16.57
2017-09-04T06:20:24.327Z,16.45
2017-09-04T06:21:24.304Z,16.48
2017-09-04T06:22:24.284Z,16.33
2017-09-04T06:23:24.274Z,16.25
2017-09-04T06:24:24.243Z,16.16
2017-09-04T06:25:24.233Z,16.29
2017-09-04T06:26:24.204Z,16.73
2017-09-04T06:27:24.186Z,16.96
2017-09-04T06:28:24.165Z,17.32
2017-09-04T06:29:23.835Z,17.77
2017-09-04T06:30:24.127Z,17.98
2017-09-04T06:31:24.111Z,18.32
2017-09-04T06:32:24.088Z,18.59
2017-09-04T06:33:24.065Z,18.99
2017-09-04T06:34:24.054Z,19.27
2017-09-04T06:35:24.037Z,19.61
2017-09-04T06:36:24.009Z,19.82
2017-09-04T06:37:23.683Z,20.04
2017-09-04T06:38:23.976Z,20.26
2017-09-04T06:39:23.953Z,20.53
2017-09-04T06:40:23.944Z,20.61
2017-09-04T06:41:23.919Z,20.87
2017-09-04T06:42:23.900Z,20.93
2017-09-04T06:43:23.885Z,21.09
2017-09-04T06:44:23.556Z,21.05
2017-09-04T06:45:23.538Z,21.08
2017-09-04T06:46:23.840Z,20.98
2017-09-04T06:47:23.815Z,20.93
2017-09-04T06:48:23.804Z,20.85
2017-09-04T06:49:23.783Z,20.78
2017-09-04T06:50:23.768Z,20.46
2017-09-04T06:51:23.751Z,20.19
2017-09-04T06:52:23.728Z,19.85
2017-09-04T06:53:23.707Z,19.95
2017-09-04T06:54:23.697Z,19.97
2017-09-04T06:55:23.678Z,20.23
2017-09-04T06:56:23.349Z,20.37
2017-09-04T06:57:23.329Z,20.57
2017-09-04T06:58:23.626Z,20.93
2017-09-04T06:59:23.299Z,21.31
2017-09-04T07:00:23.590Z,21.61
2017-09-04T07:01:23.581Z,22.04
2017-09-04T07:02:23.277Z,22.35
2017-09-04T07:03:23.548Z,22.46
2017-09-04T07:04:23.527Z,22.31
2017-09-04T07:05:23.502Z,22.19
2017-09-04T07:06:23.507Z,22.2
2017-09-04T07:07:23.480Z,22.41
2017-09-04T07:08:23.531Z,22.36
2017-09-04T07:09:23.135Z,22.35
2017-09-04T07:10:23.428Z,22.45
2017-09-04T07:11:23.415Z,22.42
2017-09-04T07:12:23.396Z,22.51
2017-09-04T07:13:23.382Z,22.49
2017-09-04T07:14:23.363Z,22.38
2017-09-04T07:15:23.348Z,22.27
2017-09-04T07:16:23.342Z,22.19
2017-09-04T07:17:23.328Z,22.31
2017-09-04T07:18:23.302Z,22.35
2017-09-04T07:19:23.292Z,22.59
2017-09-04T07:20:23.272Z,23
2017-09-04T07:21:23.312Z,23.23
2017-09-04T07:22:23.243Z,23.45
2017-09-04T07:23:23.533Z,23.35
2017-09-04T07:24:23.213Z,23.14
2017-09-04T07:25:23.198Z,23.09
2017-09-04T07:26:23.184Z,23.07
2017-09-04T07:27:23.169Z,23.07
2017-09-04T07:28:23.148Z,23.31
2017-09-04T07:29:23.137Z,23.35
2017-09-04T07:30:23.124Z,23.56
2017-09-04T07:31:23.110Z,23.68
2017-09-04T07:32:23.093Z,23.86
2017-09-04T07:33:23.077Z,23.87
2017-09-04T07:34:23.063Z,23.81
2017-09-04T07:35:23.049Z,23.99
2017-09-04T07:36:23.028Z,24.29
2017-09-04T07:37:23.017Z,24.66
2017-09-04T07:38:23.017Z,24.87
2017-09-04T07:39:22.995Z,25.19
2017-09-04T07:40:22.973Z,25.35
2017-09-04T07:41:22.964Z,25.64
2017-09-04T07:42:22.955Z,25.89
2017-09-04T07:43:22.953Z,26.04
2017-09-04T07:44:22.931Z,26.24
2017-09-04T07:45:22.919Z,26.41
2017-09-04T07:46:22.896Z,26.59
2017-09-04T07:47:22.899Z,26.65
2017-09-04T07:48:22.876Z,26.94
2017-09-04T07:49:22.864Z,27.12
2017-09-04T07:50:22.864Z,27.23
2017-09-04T07:51:22.534Z,27.33
2017-09-04T07:52:22.831Z,27.5
2017-09-04T07:53:22.819Z,27.62
2017-09-04T07:54:22.808Z,27.68
2017-09-04T07:55:22.801Z,27.71
2017-09-04T07:56:22.790Z,27.88
2017-09-04T07:57:22.769Z,27.88
2017-09-04T07:58:22.147Z,28.02
2017-09-04T07:59:22.748Z,28.09
2017-09-04T08:00:22.743Z,28.09
2017-09-04T08:01:22.790Z,28.11
2017-09-04T08:02:22.738Z,28.08
2017-09-04T08:03:22.719Z,28.21
2017-09-04T08:04:22.696Z,28.33
2017-09-04T08:05:22.693Z,28.38
2017-09-04T08:06:22.377Z,28.5
2017-09-04T08:07:22.668Z,28.62
2017-09-04T08:08:22.670Z,28.6
2017-09-04T08:09:22.656Z,28.79
2017-09-04T08:10:22.639Z,28.94
2017-09-04T08:11:22.636Z,29
2017-09-04T08:12:22.623Z,29.15
2017-09-04T08:13:22.605Z,29.2
2017-09-04T08:14:22.607Z,29.29
2017-09-04T08:15:22.592Z,29.33
2017-09-04T08:16:22.581Z,29.27
2017-09-04T08:17:22.580Z,29.33
2017-09-04T08:18:22.565Z,29.27
2017-09-04T08:19:22.589Z,29.12
2017-09-04T08:20:22.542Z,29.33
2017-09-04T08:21:22.541Z,29.52
2017-09-04T08:22:22.531Z,29.69
2017-09-04T08:23:22.519Z,29.82
2017-09-04T08:24:22.530Z,29.82
2017-09-04T08:25:22.515Z,30
2017-09-04T08:26:22.515Z,30.1
2017-09-04T08:27:22.497Z,30.23
2017-09-04T08:28:22.496Z,30.29
2017-09-04T08:29:22.482Z,30.42
2017-09-04T08:31:22.555Z,30.44
2017-09-04T08:32:22.452Z,30.48
2017-09-04T08:33:22.437Z,30.32
2017-09-04T08:34:22.439Z,30.21
2017-09-04T08:35:22.426Z,30.03
2017-09-04T08:36:22.417Z,30.08
2017-09-04T08:37:22.408Z,30.25
2017-09-04T08:38:22.514Z,30.54
2017-09-04T08:39:22.087Z,30.7
2017-09-04T08:40:22.390Z,30.91
2017-09-04T08:41:22.378Z,30.83
2017-09-04T08:42:22.366Z,30.6
2017-09-04T08:43:22.365Z,30.76
2017-09-04T08:44:22.356Z,30.7
2017-09-04T08:45:22.186Z,30.42
2017-09-04T08:46:22.339Z,30.4
2017-09-04T08:47:22.332Z,30.23
2017-09-04T08:48:22.423Z,30.1
2017-09-04T08:49:22.327Z,30.1
2017-09-04T08:50:22.317Z,29.99
2017-09-04T08:51:22.297Z,29.89
2017-09-04T08:52:22.283Z,30.01
2017-09-04T08:53:22.276Z,30.16
2017-09-04T08:54:21.975Z,30.26
2017-09-04T08:55:22.363Z,30.23
2017-09-04T08:56:22.259Z,30.19
2017-09-04T08:57:22.252Z,29.82
2017-09-04T08:58:22.238Z,29.69
2017-09-04T08:59:22.229Z,29.78
2017-09-04T09:00:22.219Z,29.76
2017-09-04T09:01:22.213Z,29.67
2017-09-04T09:02:22.307Z,29.58
2017-09-04T09:03:22.444Z,29.29
2017-09-04T09:04:22.187Z,29.11
2017-09-04T09:05:22.073Z,28.6
2017-09-04T09:06:22.171Z,28.76
2017-09-04T09:07:21.855Z,29.07
2017-09-04T09:08:22.158Z,29.26
2017-09-04T09:09:22.146Z,29.71
2017-09-04T09:10:21.831Z,29.81
2017-09-04T09:11:22.130Z,30
2017-09-04T09:12:22.269Z,30.08
2017-09-04T09:13:22.108Z,30
2017-09-04T09:14:22.105Z,30.01
2017-09-04T09:15:21.936Z,29.97
2017-09-04T09:16:22.091Z,30.04
2017-09-04T09:17:22.131Z,30.25
2017-09-04T09:18:22.122Z,30.16
2017-09-04T09:19:21.757Z,30.26
2017-09-04T09:20:22.108Z,30.32
2017-09-04T09:21:22.049Z,30.21
2017-09-04T09:22:22.191Z,30.22
2017-09-04T09:23:21.726Z,30.25
2017-09-04T09:24:21.719Z,30.3
2017-09-04T09:25:22.113Z,30.45
2017-09-04T09:26:22.155Z,30.54
2017-09-04T09:27:21.992Z,30.72
2017-09-04T09:28:21.986Z,30.9
2017-09-04T09:29:21.977Z,30.97
2017-09-04T09:30:21.976Z,30.97
2017-09-04T09:31:21.963Z,30.82
2017-09-04T09:32:21.971Z,30.72
2017-09-04T09:33:21.946Z,30.48
2017-09-04T09:34:21.741Z,30.4
2017-09-04T09:35:21.937Z,30.4
2017-09-04T09:36:21.923Z,30.6
2017-09-04T09:37:21.915Z,30.72
2017-09-04T09:38:21.910Z,30.96
2017-09-04T09:39:21.899Z,31
2017-09-04T09:40:22.202Z,31.03
2017-09-04T09:41:21.987Z,30.68
2017-09-04T09:42:21.883Z,30.45
2017-09-04T09:43:21.978Z,30.37
2017-09-04T09:44:21.861Z,30.56
2017-09-04T09:45:21.856Z,30.68
2017-09-04T09:46:21.857Z,30.7
2017-09-04T09:47:22.048Z,30.37
2017-09-04T09:48:21.630Z,30.28
2017-09-04T09:49:21.827Z,30.21
2017-09-04T09:50:21.814Z,30.32
2017-09-04T09:51:21.903Z,30.22
2017-09-04T09:52:21.509Z,30.19
2017-09-04T09:53:22.100Z,30.01
2017-09-04T09:54:21.783Z,29.82
2017-09-04T09:55:21.873Z,29.95
2017-09-04T09:56:21.996Z,29.74
2017-09-04T09:57:21.915Z,29.81
2017-09-04T09:58:21.752Z,30
2017-09-04T09:59:21.853Z,30.29
2017-09-04T10:00:21.839Z,30.1
2017-09-04T10:01:21.734Z,30.08
2017-09-04T10:02:21.721Z,30.08
2017-09-04T10:03:21.714Z,30.23
2017-09-04T10:04:21.407Z,30.36
2017-09-04T10:05:21.709Z,30.34
2017-09-04T10:06:21.793Z,30.45
2017-09-04T10:07:21.375Z,30.51
2017-09-04T10:08:21.678Z,30.51
2017-09-04T10:09:21.677Z,30.37
2017-09-04T10:10:21.660Z,30.34
2017-09-04T10:11:21.660Z,30.25
2017-09-04T10:12:21.657Z,30.16
2017-09-04T10:13:21.640Z,30.04
2017-09-04T10:14:21.629Z,29.92
2017-09-04T10:15:21.823Z,30.04
2017-09-04T10:16:21.715Z,30.19
2017-09-04T10:17:21.303Z,30.11
2017-09-04T10:18:21.709Z,29.69
2017-09-04T10:19:21.596Z,29.07
2017-09-04T10:20:21.598Z,28.58
2017-09-04T10:21:21.573Z,27.99
2017-09-04T10:22:21.676Z,27.33
2017-09-04T10:23:21.763Z,26.88
2017-09-04T10:24:21.562Z,26.54
2017-09-04T10:25:21.658Z,26.24
2017-09-04T10:26:21.540Z,25.94
2017-09-04T10:27:21.425Z,25.66
2017-09-04T10:28:21.518Z,25.35
2017-09-04T10:29:21.693Z,25.19
2017-09-04T10:30:21.591Z,25.01
2017-09-04T10:31:21.173Z,24.89
2017-09-04T10:32:21.479Z,24.61
2017-09-04T10:33:21.453Z,24.39
2017-09-04T10:34:21.237Z,24.29
2017-09-04T10:35:21.427Z,24.21
2017-09-04T10:36:21.422Z,24.06
2017-09-04T10:37:21.097Z,23.87
2017-09-04T10:38:21.238Z,23.87
2017-09-04T10:39:21.066Z,23.89
2017-09-04T10:40:21.369Z,23.87
2017-09-04T10:41:21.350Z,23.79
2017-09-04T10:42:21.337Z,23.9
2017-09-04T10:43:21.326Z,23.86
2017-09-04T10:44:20.994Z,23.79
2017-09-04T10:45:21.293Z,23.68
2017-09-04T10:46:20.964Z,23.62
2017-09-04T10:47:21.252Z,23.57
2017-09-04T10:48:21.247Z,23.56
2017-09-04T10:49:21.324Z,23.52
2017-09-04T10:50:21.209Z,23.42
2017-09-04T10:51:21.199Z,23.41
2017-09-04T10:52:21.178Z,23.5
2017-09-04T10:53:20.958Z,23.47
2017-09-04T10:54:21.147Z,23.41
2017-09-04T10:55:21.142Z,23.44
2017-09-04T10:56:21.218Z,23.5
2017-09-04T10:57:21.097Z,23.41
2017-09-04T10:58:21.083Z,23.42
2017-09-04T10:59:21.080Z,23.34
2017-09-04T11:00:21.049Z,23.32
2017-09-04T11:01:21.132Z,23.37
2017-09-04T11:02:21.432Z,23.19
2017-09-04T11:03:20.999Z,23.16
2017-09-04T11:04:20.985Z,23.18
2017-09-04T11:05:20.965Z,23.07
2017-09-04T11:06:21.249Z,23
2017-09-04T11:07:20.932Z,22.99
2017-09-04T11:08:21.067Z,22.89
2017-09-04T11:09:20.908Z,22.82
2017-09-04T11:10:21.232Z,22.79
2017-09-04T11:11:20.876Z,22.84
2017-09-04T11:12:20.544Z,22.84
2017-09-04T11:13:20.833Z,22.82
2017-09-04T11:14:20.526Z,23
2017-09-04T11:15:20.864Z,23.03
2017-09-04T11:16:20.794Z,23.09
2017-09-04T11:17:20.608Z,23.14
2017-09-04T11:18:20.748Z,23.16
2017-09-04T11:19:20.734Z,23.07
2017-09-04T11:20:20.720Z,23.06
2017-09-04T11:21:20.703Z,23.11
2017-09-04T11:22:20.737Z,23.03
2017-09-04T11:23:20.671Z,23.04
2017-09-04T11:24:20.648Z,23.01
2017-09-04T11:25:20.637Z,23.11
2017-09-04T11:26:20.656Z,23.03
2017-09-04T11:27:20.846Z,23
2017-09-04T11:28:20.581Z,22.89
2017-09-04T11:29:20.561Z,22.82
2017-09-04T11:30:20.596Z,22.84
2017-09-04T11:31:20.535Z,22.81
2017-09-04T11:32:20.513Z,22.64
2017-09-04T11:33:20.499Z,22.57
2017-09-04T11:34:20.582Z,22.45
2017-09-04T11:35:20.562Z,22.54
2017-09-04T11:36:20.531Z,22.52
2017-09-04T11:37:20.448Z,22.59
2017-09-04T11:38:20.421Z,22.66
2017-09-04T11:39:20.623Z,22.66
2017-09-04T11:40:20.076Z,22.64
2017-09-04T11:41:20.059Z,22.7
2017-09-04T11:42:20.041Z,22.69
2017-09-04T11:43:20.339Z,22.7
2017-09-04T11:44:20.417Z,22.74
2017-09-04T11:45:20.299Z,22.64
2017-09-04T11:46:20.285Z,22.64
2017-09-04T11:47:20.292Z,22.61
2017-09-04T11:48:20.253Z,22.49
2017-09-04T11:49:20.230Z,22.48
2017-09-04T11:50:19.900Z,22.59
2017-09-04T11:51:19.865Z,22.63
2017-09-04T11:52:19.854Z,22.61
2017-09-04T11:53:20.159Z,22.74
2017-09-04T11:54:20.127Z,22.84
2017-09-04T11:55:19.824Z,22.84
2017-09-04T11:56:20.108Z,22.85
2017-09-04T11:57:20.076Z,22.81
2017-09-04T11:58:20.075Z,22.75
2017-09-04T11:59:20.048Z,22.66
2017-09-04T12:00:19.721Z,22.64
2017-09-04T12:01:20.033Z,22.74
2017-09-04T12:02:20.037Z,22.66
2017-09-04T12:03:19.981Z,22.67
2017-09-04T12:04:20.049Z,22.69
2017-09-04T12:05:19.950Z,22.64
2017-09-04T12:06:19.938Z,22.63
2017-09-04T12:07:19.598Z,22.57
2017-09-04T12:08:19.886Z,22.7
2017-09-04T12:09:19.869Z,22.74
2017-09-04T12:10:19.958Z,22.79
2017-09-04T12:11:19.834Z,22.81
2017-09-04T12:12:19.912Z,22.79
2017-09-04T12:13:19.951Z,22.7
2017-09-04T12:14:19.832Z,22.76
2017-09-04T12:15:19.766Z,22.81
2017-09-04T12:16:19.740Z,22.78
2017-09-04T12:17:20.175Z,22.76
2017-09-04T12:18:19.880Z,22.82
2017-09-04T12:19:19.391Z,22.91
2017-09-04T12:20:19.726Z,23
2017-09-04T12:21:19.773Z,23.07
2017-09-04T12:22:19.333Z,23.06
2017-09-04T12:23:19.626Z,23.14
2017-09-04T12:24:19.826Z,23.23
2017-09-04T12:25:19.589Z,23.35
2017-09-04T12:26:19.720Z,23.41
2017-09-04T12:27:19.557Z,23.41
2017-09-04T12:28:19.640Z,23.44
2017-09-04T12:29:19.529Z,23.5
2017-09-04T12:30:19.612Z,23.39
2017-09-04T12:31:19.478Z,23.38
2017-09-04T12:32:19.471Z,23.34
2017-09-04T12:33:19.148Z,23.26
2017-09-04T12:34:19.491Z,23.21
2017-09-04T12:35:19.110Z,23.25
2017-09-04T12:36:19.422Z,23.16
2017-09-04T12:37:19.479Z,23.16
2017-09-04T12:38:19.402Z,23.14
2017-09-04T12:39:19.374Z,23.15
2017-09-04T12:40:19.381Z,23.29
2017-09-04T12:41:19.312Z,23.16
2017-09-04T12:42:19.289Z,23.03
2017-09-04T12:43:19.124Z,23.07
2017-09-04T12:44:19.315Z,23.04
2017-09-04T12:45:19.283Z,23.12
2017-09-04T12:46:19.548Z,23.25
2017-09-04T12:47:19.047Z,23.25
2017-09-04T12:48:18.893Z,23.29
2017-09-04T12:49:19.243Z,23.45
2017-09-04T12:50:19.166Z,23.44
2017-09-04T12:51:18.884Z,23.49
2017-09-04T12:52:19.123Z,23.53
2017-09-04T12:53:19.108Z,23.53
2017-09-04T12:54:19.095Z,23.54
2017-09-04T12:55:19.105Z,23.57
2017-09-04T12:56:19.053Z,23.6
2017-09-04T12:57:19.037Z,23.52